sensor_id;sensor_type;location;lat;lon;timestamp;P1;durP1;ratioP1;P2;durP2;ratioP2
74245;SDS011;62601;51.044;13.788;2023-02-28T00:02:14;7.07;;;5.05;;
74245;SDS011;62601;51.044;13.788;2023-02-28T00:04:34;9.82;;;5.90;;
74245;SDS011;62601;51.044;13.788;2023-02-28T00:06:55;9.48;;;5.63;;
74245;SDS011;62601;51.044;13.788;2023-02-28T00:09:17;7.25;;;5.20;;
74245;SDS011;62601;51.044;13.788;2023-02-28T00:11:37;7.75;;;5.25;;
74245;SDS011;62601;51.044;13.788;2023-02-28T00:13:58;7.22;;;5.65;;
74245;SDS011;62601;51.044;13.788;2023-02-28T00:16:20;9.15;;;5.50;;
74245;SDS011;62601;51.044;13.788;2023-02-28T00:18:42;7.00;;;4.97;;
74245;SDS011;62601;51.044;13.788;2023-02-28T00:21:02;5.93;;;5.32;;
74245;SDS011;62601;51.044;13.788;2023-02-28T00:23:24;9.05;;;5.70;;
74245;SDS011;62601;51.044;13.788;2023-02-28T00:25:45;9.15;;;5.90;;
74245;SDS011;62601;51.044;13.788;2023-02-28T00:28:06;10.18;;;5.88;;
74245;SDS011;62601;51.044;13.788;2023-02-28T00:30:28;6.25;;;4.90;;
74245;SDS011;62601;51.044;13.788;2023-02-28T00:32:49;8.18;;;6.25;;
74245;SDS011;62601;51.044;13.788;2023-02-28T00:35:11;7.20;;;5.57;;
74245;SDS011;62601;51.044;13.788;2023-02-28T00:37:31;11.10;;;5.78;;
74245;SDS011;62601;51.044;13.788;2023-02-28T00:39:51;8.68;;;6.13;;
74245;SDS011;62601;51.044;13.788;2023-02-28T00:42:13;6.95;;;5.75;;
74245;SDS011;62601;51.044;13.788;2023-02-28T00:44:33;11.35;;;6.40;;
74245;SDS011;62601;51.044;13.788;2023-02-28T00:46:54;7.05;;;5.28;;
74245;SDS011;62601;51.044;13.788;2023-02-28T00:49:16;9.07;;;6.10;;
74245;SDS011;62601;51.044;13.788;2023-02-28T00:51:37;8.48;;;5.78;;
74245;SDS011;62601;51.044;13.788;2023-02-28T00:53:58;8.10;;;5.13;;
74245;SDS011;62601;51.044;13.788;2023-02-28T00:56:19;9.00;;;5.22;;
74245;SDS011;62601;51.044;13.788;2023-02-28T00:58:41;6.68;;;5.32;;
74245;SDS011;62601;51.044;13.788;2023-02-28T01:01:02;8.25;;;5.80;;
74245;SDS011;62601;51.044;13.788;2023-02-28T01:03:24;9.52;;;6.32;;
74245;SDS011;62601;51.044;13.788;2023-02-28T01:05:45;11.50;;;6.68;;
74245;SDS011;62601;51.044;13.788;2023-02-28T01:08:07;9.10;;;6.10;;
74245;SDS011;62601;51.044;13.788;2023-02-28T01:10:28;5.75;;;4.93;;
74245;SDS011;62601;51.044;13.788;2023-02-28T01:12:49;8.23;;;5.30;;
74245;SDS011;62601;51.044;13.788;2023-02-28T01:15:11;8.48;;;5.72;;
74245;SDS011;62601;51.044;13.788;2023-02-28T01:17:32;7.03;;;5.15;;
74245;SDS011;62601;51.044;13.788;2023-02-28T01:19:54;8.30;;;5.45;;
74245;SDS011;62601;51.044;13.788;2023-02-28T01:22:15;6.30;;;4.80;;
74245;SDS011;62601;51.044;13.788;2023-02-28T01:24:37;6.45;;;5.47;;
74245;SDS011;62601;51.044;13.788;2023-02-28T01:26:57;8.77;;;5.60;;
74245;SDS011;62601;51.044;13.788;2023-02-28T01:29:18;8.90;;;5.95;;
74245;SDS011;62601;51.044;13.788;2023-02-28T01:31:38;6.43;;;5.00;;
74245;SDS011;62601;51.044;13.788;2023-02-28T01:34:00;8.27;;;5.80;;
74245;SDS011;62601;51.044;13.788;2023-02-28T01:36:23;8.30;;;5.03;;
74245;SDS011;62601;51.044;13.788;2023-02-28T01:38:43;12.05;;;5.68;;
74245;SDS011;62601;51.044;13.788;2023-02-28T01:41:04;7.07;;;5.15;;
74245;SDS011;62601;51.044;13.788;2023-02-28T01:43:26;10.60;;;6.18;;
74245;SDS011;62601;51.044;13.788;2023-02-28T01:45:46;9.27;;;5.30;;
74245;SDS011;62601;51.044;13.788;2023-02-28T01:48:07;7.78;;;5.10;;
74245;SDS011;62601;51.044;13.788;2023-02-28T01:50:29;6.70;;;4.65;;
74245;SDS011;62601;51.044;13.788;2023-02-28T01:52:52;8.20;;;5.25;;
74245;SDS011;62601;51.044;13.788;2023-02-28T01:55:15;10.52;;;5.03;;
74245;SDS011;62601;51.044;13.788;2023-02-28T01:57:38;6.93;;;5.05;;
74245;SDS011;62601;51.044;13.788;2023-02-28T02:00:01;8.27;;;5.10;;
74245;SDS011;62601;51.044;13.788;2023-02-28T02:02:22;9.07;;;6.15;;
74245;SDS011;62601;51.044;13.788;2023-02-28T02:04:46;6.43;;;5.10;;
74245;SDS011;62601;51.044;13.788;2023-02-28T02:07:07;8.07;;;5.30;;
74245;SDS011;62601;51.044;13.788;2023-02-28T02:09:28;7.40;;;5.40;;
74245;SDS011;62601;51.044;13.788;2023-02-28T02:11:48;8.15;;;5.40;;
74245;SDS011;62601;51.044;13.788;2023-02-28T02:14:22;8.50;;;5.80;;
74245;SDS011;62601;51.044;13.788;2023-02-28T02:17:02;6.35;;;5.30;;
74245;SDS011;62601;51.044;13.788;2023-02-28T02:29:53;8.13;;;5.00;;
74245;SDS011;62601;51.044;13.788;2023-02-28T02:34:48;8.57;;;5.63;;
74245;SDS011;62601;51.044;13.788;2023-02-28T02:37:21;8.52;;;5.05;;
74245;SDS011;62601;51.044;13.788;2023-02-28T02:39:48;6.25;;;4.95;;
74245;SDS011;62601;51.044;13.788;2023-02-28T02:42:14;10.05;;;6.60;;
74245;SDS011;62601;51.044;13.788;2023-02-28T02:44:46;9.65;;;6.22;;
74245;SDS011;62601;51.044;13.788;2023-02-28T02:47:10;7.95;;;5.72;;
74245;SDS011;62601;51.044;13.788;2023-02-28T02:49:33;8.63;;;6.20;;
74245;SDS011;62601;51.044;13.788;2023-02-28T02:51:56;9.27;;;5.82;;
74245;SDS011;62601;51.044;13.788;2023-02-28T02:54:27;7.55;;;6.18;;
74245;SDS011;62601;51.044;13.788;2023-02-28T02:56:49;8.18;;;5.55;;
74245;SDS011;62601;51.044;13.788;2023-02-28T02:59:11;7.55;;;6.38;;
74245;SDS011;62601;51.044;13.788;2023-02-28T03:01:31;7.72;;;6.03;;
74245;SDS011;62601;51.044;13.788;2023-02-28T03:03:52;8.60;;;6.45;;
74245;SDS011;62601;51.044;13.788;2023-02-28T03:06:14;8.68;;;6.32;;
74245;SDS011;62601;51.044;13.788;2023-02-28T03:08:36;8.52;;;6.68;;
74245;SDS011;62601;51.044;13.788;2023-02-28T03:10:58;8.05;;;5.90;;
74245;SDS011;62601;51.044;13.788;2023-02-28T03:15:56;8.18;;;6.60;;
74245;SDS011;62601;51.044;13.788;2023-02-28T03:18:22;7.22;;;5.68;;
74245;SDS011;62601;51.044;13.788;2023-02-28T03:23:23;7.63;;;6.25;;
74245;SDS011;62601;51.044;13.788;2023-02-28T03:30:57;9.82;;;7.47;;
74245;SDS011;62601;51.044;13.788;2023-02-28T03:33:20;10.50;;;7.50;;
74245;SDS011;62601;51.044;13.788;2023-02-28T03:35:42;8.65;;;6.85;;
74245;SDS011;62601;51.044;13.788;2023-02-28T03:38:11;9.75;;;7.40;;
74245;SDS011;62601;51.044;13.788;2023-02-28T03:40:32;11.10;;;7.13;;
74245;SDS011;62601;51.044;13.788;2023-02-28T03:42:56;10.30;;;6.70;;
74245;SDS011;62601;51.044;13.788;2023-02-28T03:45:21;9.45;;;6.78;;
74245;SDS011;62601;51.044;13.788;2023-02-28T03:48:02;7.95;;;7.13;;
74245;SDS011;62601;51.044;13.788;2023-02-28T03:50:38;9.35;;;7.43;;
74245;SDS011;62601;51.044;13.788;2023-02-28T03:55:39;9.48;;;7.50;;
74245;SDS011;62601;51.044;13.788;2023-02-28T04:00:48;11.35;;;8.45;;
74245;SDS011;62601;51.044;13.788;2023-02-28T04:03:10;12.07;;;8.80;;
74245;SDS011;62601;51.044;13.788;2023-02-28T04:05:31;9.82;;;7.80;;
74245;SDS011;62601;51.044;13.788;2023-02-28T04:07:53;10.13;;;7.28;;
74245;SDS011;62601;51.044;13.788;2023-02-28T04:10:13;13.30;;;9.00;;
74245;SDS011;62601;51.044;13.788;2023-02-28T04:12:34;11.02;;;7.10;;
74245;SDS011;62601;51.044;13.788;2023-02-28T04:14:54;13.43;;;9.00;;
74245;SDS011;62601;51.044;13.788;2023-02-28T04:17:14;11.70;;;8.30;;
74245;SDS011;62601;51.044;13.788;2023-02-28T04:19:34;9.70;;;7.60;;
74245;SDS011;62601;51.044;13.788;2023-02-28T04:21:54;14.60;;;9.27;;
74245;SDS011;62601;51.044;13.788;2023-02-28T04:24:16;13.02;;;8.63;;
74245;SDS011;62601;51.044;13.788;2023-02-28T04:26:37;11.57;;;9.10;;
74245;SDS011;62601;51.044;13.788;2023-02-28T04:28:58;13.95;;;8.55;;
74245;SDS011;62601;51.044;13.788;2023-02-28T04:31:18;11.80;;;8.63;;
74245;SDS011;62601;51.044;13.788;2023-02-28T04:33:38;11.52;;;8.10;;
74245;SDS011;62601;51.044;13.788;2023-02-28T04:36:05;10.77;;;8.70;;
74245;SDS011;62601;51.044;13.788;2023-02-28T04:38:27;12.02;;;7.97;;
74245;SDS011;62601;51.044;13.788;2023-02-28T04:40:47;12.07;;;9.00;;
74245;SDS011;62601;51.044;13.788;2023-02-28T04:43:07;9.93;;;8.15;;
74245;SDS011;62601;51.044;13.788;2023-02-28T04:45:27;11.25;;;8.85;;
74245;SDS011;62601;51.044;13.788;2023-02-28T04:47:49;11.75;;;9.07;;
74245;SDS011;62601;51.044;13.788;2023-02-28T04:50:09;10.88;;;7.95;;
74245;SDS011;62601;51.044;13.788;2023-02-28T04:52:29;12.60;;;9.15;;
74245;SDS011;62601;51.044;13.788;2023-02-28T04:54:49;11.68;;;8.43;;
74245;SDS011;62601;51.044;13.788;2023-02-28T04:57:09;12.27;;;8.80;;
74245;SDS011;62601;51.044;13.788;2023-02-28T04:59:29;12.15;;;9.10;;
74245;SDS011;62601;51.044;13.788;2023-02-28T05:01:49;10.60;;;9.00;;
74245;SDS011;62601;51.044;13.788;2023-02-28T05:04:09;11.93;;;9.30;;
74245;SDS011;62601;51.044;13.788;2023-02-28T05:06:30;12.93;;;8.77;;
74245;SDS011;62601;51.044;13.788;2023-02-28T05:08:51;12.57;;;8.82;;
74245;SDS011;62601;51.044;13.788;2023-02-28T05:11:18;12.85;;;9.10;;
74245;SDS011;62601;51.044;13.788;2023-02-28T05:13:40;14.40;;;9.40;;
74245;SDS011;62601;51.044;13.788;2023-02-28T05:16:00;14.77;;;9.35;;
74245;SDS011;62601;51.044;13.788;2023-02-28T05:18:20;13.73;;;8.48;;
74245;SDS011;62601;51.044;13.788;2023-02-28T05:20:41;13.55;;;9.20;;
74245;SDS011;62601;51.044;13.788;2023-02-28T05:23:01;12.02;;;9.23;;
74245;SDS011;62601;51.044;13.788;2023-02-28T05:25:21;13.18;;;9.65;;
74245;SDS011;62601;51.044;13.788;2023-02-28T05:27:41;14.05;;;9.82;;
74245;SDS011;62601;51.044;13.788;2023-02-28T05:30:02;13.45;;;9.13;;
74245;SDS011;62601;51.044;13.788;2023-02-28T05:32:22;15.15;;;10.65;;
74245;SDS011;62601;51.044;13.788;2023-02-28T05:34:42;15.07;;;9.73;;
74245;SDS011;62601;51.044;13.788;2023-02-28T05:37:02;15.27;;;10.50;;
74245;SDS011;62601;51.044;13.788;2023-02-28T05:39:22;13.45;;;10.20;;
74245;SDS011;62601;51.044;13.788;2023-02-28T05:41:42;11.40;;;9.02;;
74245;SDS011;62601;51.044;13.788;2023-02-28T05:44:02;19.33;;;10.50;;
74245;SDS011;62601;51.044;13.788;2023-02-28T05:46:22;21.80;;;11.32;;
74245;SDS011;62601;51.044;13.788;2023-02-28T05:48:45;51.50;;;14.40;;
74245;SDS011;62601;51.044;13.788;2023-02-28T05:51:06;17.83;;;10.13;;
74245;SDS011;62601;51.044;13.788;2023-02-28T05:53:27;19.85;;;9.48;;
74245;SDS011;62601;51.044;13.788;2023-02-28T05:55:47;16.45;;;10.15;;
74245;SDS011;62601;51.044;13.788;2023-02-28T05:58:08;14.73;;;9.95;;
74245;SDS011;62601;51.044;13.788;2023-02-28T06:00:28;13.95;;;9.70;;
74245;SDS011;62601;51.044;13.788;2023-02-28T06:02:48;14.90;;;9.85;;
74245;SDS011;62601;51.044;13.788;2023-02-28T06:05:12;17.30;;;10.02;;
74245;SDS011;62601;51.044;13.788;2023-02-28T06:07:33;14.45;;;10.15;;
74245;SDS011;62601;51.044;13.788;2023-02-28T06:09:53;17.13;;;10.15;;
74245;SDS011;62601;51.044;13.788;2023-02-28T06:12:13;15.98;;;10.95;;
74245;SDS011;62601;51.044;13.788;2023-02-28T06:14:33;13.43;;;10.23;;
74245;SDS011;62601;51.044;13.788;2023-02-28T06:16:53;13.68;;;9.90;;
74245;SDS011;62601;51.044;13.788;2023-02-28T06:19:13;11.40;;;9.15;;
74245;SDS011;62601;51.044;13.788;2023-02-28T06:21:34;18.98;;;10.60;;
74245;SDS011;62601;51.044;13.788;2023-02-28T06:23:54;14.20;;;10.25;;
74245;SDS011;62601;51.044;13.788;2023-02-28T06:26:15;12.38;;;9.75;;
74245;SDS011;62601;51.044;13.788;2023-02-28T06:28:35;18.05;;;11.00;;
74245;SDS011;62601;51.044;13.788;2023-02-28T06:30:55;14.77;;;10.75;;
74245;SDS011;62601;51.044;13.788;2023-02-28T06:33:15;14.02;;;10.20;;
74245;SDS011;62601;51.044;13.788;2023-02-28T06:35:35;13.90;;;9.60;;
74245;SDS011;62601;51.044;13.788;2023-02-28T06:37:55;16.50;;;10.82;;
74245;SDS011;62601;51.044;13.788;2023-02-28T06:40:15;14.18;;;9.80;;
74245;SDS011;62601;51.044;13.788;2023-02-28T06:42:36;14.90;;;8.90;;
74245;SDS011;62601;51.044;13.788;2023-02-28T06:44:56;15.88;;;9.45;;
74245;SDS011;62601;51.044;13.788;2023-02-28T06:47:16;14.77;;;9.63;;
74245;SDS011;62601;51.044;13.788;2023-02-28T06:49:36;13.13;;;8.65;;
74245;SDS011;62601;51.044;13.788;2023-02-28T06:51:56;13.73;;;9.90;;
74245;SDS011;62601;51.044;13.788;2023-02-28T06:54:16;12.20;;;9.10;;
74245;SDS011;62601;51.044;13.788;2023-02-28T06:56:36;19.90;;;10.05;;
74245;SDS011;62601;51.044;13.788;2023-02-28T06:58:57;16.73;;;9.02;;
74245;SDS011;62601;51.044;13.788;2023-02-28T07:01:17;12.60;;;8.57;;
74245;SDS011;62601;51.044;13.788;2023-02-28T07:03:37;10.82;;;8.90;;
74245;SDS011;62601;51.044;13.788;2023-02-28T07:05:57;12.43;;;8.93;;
74245;SDS011;62601;51.044;13.788;2023-02-28T07:08:17;12.20;;;9.02;;
74245;SDS011;62601;51.044;13.788;2023-02-28T07:10:39;14.15;;;9.65;;
74245;SDS011;62601;51.044;13.788;2023-02-28T07:12:59;17.58;;;8.70;;
74245;SDS011;62601;51.044;13.788;2023-02-28T07:15:20;13.10;;;8.75;;
74245;SDS011;62601;51.044;13.788;2023-02-28T07:17:40;16.40;;;9.18;;
74245;SDS011;62601;51.044;13.788;2023-02-28T07:20:01;12.88;;;8.60;;
74245;SDS011;62601;51.044;13.788;2023-02-28T07:22:22;13.45;;;9.25;;
74245;SDS011;62601;51.044;13.788;2023-02-28T07:24:44;12.07;;;8.98;;
74245;SDS011;62601;51.044;13.788;2023-02-28T07:27:05;15.55;;;9.25;;
74245;SDS011;62601;51.044;13.788;2023-02-28T07:29:27;15.32;;;10.10;;
74245;SDS011;62601;51.044;13.788;2023-02-28T07:31:48;12.63;;;9.55;;
74245;SDS011;62601;51.044;13.788;2023-02-28T07:34:09;13.02;;;9.48;;
74245;SDS011;62601;51.044;13.788;2023-02-28T07:36:31;15.45;;;10.10;;
74245;SDS011;62601;51.044;13.788;2023-02-28T07:38:52;13.32;;;9.35;;
74245;SDS011;62601;51.044;13.788;2023-02-28T07:41:14;15.30;;;9.68;;
74245;SDS011;62601;51.044;13.788;2023-02-28T07:43:35;13.25;;;8.50;;
74245;SDS011;62601;51.044;13.788;2023-02-28T07:46:01;15.82;;;9.38;;
74245;SDS011;62601;51.044;13.788;2023-02-28T07:48:22;12.15;;;8.30;;
74245;SDS011;62601;51.044;13.788;2023-02-28T07:50:43;14.68;;;8.23;;
74245;SDS011;62601;51.044;13.788;2023-02-28T07:53:03;14.77;;;9.70;;
74245;SDS011;62601;51.044;13.788;2023-02-28T07:55:23;13.25;;;9.82;;
74245;SDS011;62601;51.044;13.788;2023-02-28T07:57:44;15.52;;;9.80;;
74245;SDS011;62601;51.044;13.788;2023-02-28T08:00:06;13.23;;;9.65;;
74245;SDS011;62601;51.044;13.788;2023-02-28T08:02:26;12.63;;;9.18;;
74245;SDS011;62601;51.044;13.788;2023-02-28T08:04:46;14.38;;;9.75;;
74245;SDS011;62601;51.044;13.788;2023-02-28T08:07:08;14.35;;;8.93;;
74245;SDS011;62601;51.044;13.788;2023-02-28T08:09:29;16.75;;;10.15;;
74245;SDS011;62601;51.044;13.788;2023-02-28T08:11:50;14.07;;;9.50;;
74245;SDS011;62601;51.044;13.788;2023-02-28T08:14:12;13.38;;;8.13;;
74245;SDS011;62601;51.044;13.788;2023-02-28T08:16:32;13.45;;;8.35;;
74245;SDS011;62601;51.044;13.788;2023-02-28T08:18:53;14.77;;;9.50;;
74245;SDS011;62601;51.044;13.788;2023-02-28T08:21:14;14.63;;;9.13;;
74245;SDS011;62601;51.044;13.788;2023-02-28T08:23:36;13.00;;;10.40;;
74245;SDS011;62601;51.044;13.788;2023-02-28T08:25:56;12.00;;;10.05;;
74245;SDS011;62601;51.044;13.788;2023-02-28T08:28:16;14.55;;;10.60;;
74245;SDS011;62601;51.044;13.788;2023-02-28T08:30:36;16.70;;;10.10;;
74245;SDS011;62601;51.044;13.788;2023-02-28T08:32:57;13.43;;;9.68;;
74245;SDS011;62601;51.044;13.788;2023-02-28T08:35:19;13.40;;;9.77;;
74245;SDS011;62601;51.044;13.788;2023-02-28T08:37:40;16.88;;;10.50;;
74245;SDS011;62601;51.044;13.788;2023-02-28T08:40:02;17.02;;;10.27;;
74245;SDS011;62601;51.044;13.788;2023-02-28T08:42:23;14.05;;;9.75;;
74245;SDS011;62601;51.044;13.788;2023-02-28T08:44:45;16.55;;;9.73;;
74245;SDS011;62601;51.044;13.788;2023-02-28T08:47:06;15.68;;;9.45;;
74245;SDS011;62601;51.044;13.788;2023-02-28T08:49:27;15.38;;;9.93;;
74245;SDS011;62601;51.044;13.788;2023-02-28T08:51:49;16.65;;;10.10;;
74245;SDS011;62601;51.044;13.788;2023-02-28T08:54:10;14.02;;;9.98;;
74245;SDS011;62601;51.044;13.788;2023-02-28T08:56:31;11.93;;;9.15;;
74245;SDS011;62601;51.044;13.788;2023-02-28T08:58:54;14.13;;;9.98;;
74245;SDS011;62601;51.044;13.788;2023-02-28T09:01:16;15.07;;;9.13;;
74245;SDS011;62601;51.044;13.788;2023-02-28T09:03:38;18.58;;;9.38;;
74245;SDS011;62601;51.044;13.788;2023-02-28T09:06:03;15.77;;;10.18;;
74245;SDS011;62601;51.044;13.788;2023-02-28T09:08:25;14.93;;;9.60;;
74245;SDS011;62601;51.044;13.788;2023-02-28T09:10:46;14.07;;;10.38;;
74245;SDS011;62601;51.044;13.788;2023-02-28T09:13:08;16.23;;;10.07;;
74245;SDS011;62601;51.044;13.788;2023-02-28T09:15:29;15.20;;;9.43;;
74245;SDS011;62601;51.044;13.788;2023-02-28T09:17:50;14.43;;;9.48;;
74245;SDS011;62601;51.044;13.788;2023-02-28T09:20:10;15.45;;;9.93;;
74245;SDS011;62601;51.044;13.788;2023-02-28T09:22:32;13.82;;;9.98;;
74245;SDS011;62601;51.044;13.788;2023-02-28T09:24:53;12.00;;;9.07;;
74245;SDS011;62601;51.044;13.788;2023-02-28T09:27:14;11.90;;;9.35;;
74245;SDS011;62601;51.044;13.788;2023-02-28T09:29:35;13.13;;;8.48;;
74245;SDS011;62601;51.044;13.788;2023-02-28T09:31:57;12.75;;;8.88;;
74245;SDS011;62601;51.044;13.788;2023-02-28T09:34:18;15.18;;;9.48;;
74245;SDS011;62601;51.044;13.788;2023-02-28T09:36:39;12.98;;;8.90;;
74245;SDS011;62601;51.044;13.788;2023-02-28T09:39:01;11.50;;;8.43;;
74245;SDS011;62601;51.044;13.788;2023-02-28T09:41:23;11.48;;;7.40;;
74245;SDS011;62601;51.044;13.788;2023-02-28T09:43:56;13.80;;;7.97;;
74245;SDS011;62601;51.044;13.788;2023-02-28T09:46:35;11.93;;;7.70;;
74245;SDS011;62601;51.044;13.788;2023-02-28T09:48:59;9.00;;;6.75;;
74245;SDS011;62601;51.044;13.788;2023-02-28T09:54:13;9.50;;;7.50;;
74245;SDS011;62601;51.044;13.788;2023-02-28T09:56:39;11.15;;;7.13;;
74245;SDS011;62601;51.044;13.788;2023-02-28T09:59:16;10.35;;;7.82;;
74245;SDS011;62601;51.044;13.788;2023-02-28T10:04:36;9.52;;;7.28;;
74245;SDS011;62601;51.044;13.788;2023-02-28T10:06:57;10.32;;;8.65;;
74245;SDS011;62601;51.044;13.788;2023-02-28T10:09:22;10.05;;;7.47;;
74245;SDS011;62601;51.044;13.788;2023-02-28T10:11:44;10.95;;;8.00;;
74245;SDS011;62601;51.044;13.788;2023-02-28T10:19:39;12.20;;;8.35;;
74245;SDS011;62601;51.044;13.788;2023-02-28T10:22:10;11.23;;;8.10;;
74245;SDS011;62601;51.044;13.788;2023-02-28T10:24:42;11.07;;;7.85;;
74245;SDS011;62601;51.044;13.788;2023-02-28T10:27:12;12.27;;;7.85;;
74245;SDS011;62601;51.044;13.788;2023-02-28T10:29:34;12.63;;;8.88;;
74245;SDS011;62601;51.044;13.788;2023-02-28T10:31:54;18.25;;;9.45;;
74245;SDS011;62601;51.044;13.788;2023-02-28T10:34:15;16.08;;;9.23;;
74245;SDS011;62601;51.044;13.788;2023-02-28T10:36:37;12.05;;;8.82;;
74245;SDS011;62601;51.044;13.788;2023-02-28T10:38:58;16.45;;;9.93;;
74245;SDS011;62601;51.044;13.788;2023-02-28T10:41:31;12.40;;;9.60;;
74245;SDS011;62601;51.044;13.788;2023-02-28T10:43:51;12.75;;;10.02;;
74245;SDS011;62601;51.044;13.788;2023-02-28T10:46:14;11.20;;;8.57;;
74245;SDS011;62601;51.044;13.788;2023-02-28T10:48:39;14.43;;;10.10;;
74245;SDS011;62601;51.044;13.788;2023-02-28T10:51:03;14.02;;;10.00;;
74245;SDS011;62601;51.044;13.788;2023-02-28T10:55:44;12.63;;;9.48;;
74245;SDS011;62601;51.044;13.788;2023-02-28T10:58:10;13.57;;;8.43;;
74245;SDS011;62601;51.044;13.788;2023-02-28T11:00:38;11.05;;;8.75;;
74245;SDS011;62601;51.044;13.788;2023-02-28T11:02:58;12.48;;;9.80;;
74245;SDS011;62601;51.044;13.788;2023-02-28T11:05:26;9.57;;;8.43;;
74245;SDS011;62601;51.044;13.788;2023-02-28T11:07:50;10.88;;;8.85;;
74245;SDS011;62601;51.044;13.788;2023-02-28T11:10:16;10.57;;;9.10;;
74245;SDS011;62601;51.044;13.788;2023-02-28T11:12:38;11.90;;;8.80;;
74245;SDS011;62601;51.044;13.788;2023-02-28T11:15:06;12.60;;;10.40;;
74245;SDS011;62601;51.044;13.788;2023-02-28T11:17:27;14.98;;;10.50;;
74245;SDS011;62601;51.044;13.788;2023-02-28T11:19:50;15.07;;;10.05;;
74245;SDS011;62601;51.044;13.788;2023-02-28T11:22:10;12.73;;;10.23;;
74245;SDS011;62601;51.044;13.788;2023-02-28T11:24:37;11.30;;;9.32;;
74245;SDS011;62601;51.044;13.788;2023-02-28T11:27:01;11.68;;;8.93;;
74245;SDS011;62601;51.044;13.788;2023-02-28T11:29:22;12.30;;;8.88;;
74245;SDS011;62601;51.044;13.788;2023-02-28T11:31:43;10.00;;;8.30;;
74245;SDS011;62601;51.044;13.788;2023-02-28T11:34:07;12.15;;;8.75;;
74245;SDS011;62601;51.044;13.788;2023-02-28T11:36:41;14.98;;;10.45;;
74245;SDS011;62601;51.044;13.788;2023-02-28T11:39:07;11.35;;;8.15;;
74245;SDS011;62601;51.044;13.788;2023-02-28T11:44:23;12.25;;;8.77;;
74245;SDS011;62601;51.044;13.788;2023-02-28T11:46:54;11.70;;;9.27;;
74245;SDS011;62601;51.044;13.788;2023-02-28T12:04:56;10.65;;;8.88;;
74245;SDS011;62601;51.044;13.788;2023-02-28T12:07:24;11.30;;;8.85;;
74245;SDS011;62601;51.044;13.788;2023-02-28T12:09:55;9.77;;;7.97;;
74245;SDS011;62601;51.044;13.788;2023-02-28T12:15:00;10.48;;;8.57;;
74245;SDS011;62601;51.044;13.788;2023-02-28T12:27:56;11.05;;;8.73;;
74245;SDS011;62601;51.044;13.788;2023-02-28T12:30:38;10.65;;;9.23;;
74245;SDS011;62601;51.044;13.788;2023-02-28T12:33:12;10.88;;;9.50;;
74245;SDS011;62601;51.044;13.788;2023-02-28T12:35:37;10.68;;;9.18;;
74245;SDS011;62601;51.044;13.788;2023-02-28T12:38:04;13.18;;;10.27;;
74245;SDS011;62601;51.044;13.788;2023-02-28T12:40:41;11.88;;;10.27;;
74245;SDS011;62601;51.044;13.788;2023-02-28T12:43:03;15.10;;;10.95;;
74245;SDS011;62601;51.044;13.788;2023-02-28T12:48:39;13.05;;;10.85;;
74245;SDS011;62601;51.044;13.788;2023-02-28T12:50:59;16.77;;;10.60;;
74245;SDS011;62601;51.044;13.788;2023-02-28T12:53:25;14.35;;;10.70;;
74245;SDS011;62601;51.044;13.788;2023-02-28T12:55:50;15.05;;;10.60;;
74245;SDS011;62601;51.044;13.788;2023-02-28T13:04:08;11.82;;;9.35;;
74245;SDS011;62601;51.044;13.788;2023-02-28T13:09:14;15.18;;;9.77;;
74245;SDS011;62601;51.044;13.788;2023-02-28T13:11:51;14.35;;;10.52;;
74245;SDS011;62601;51.044;13.788;2023-02-28T13:14:16;14.18;;;11.85;;
74245;SDS011;62601;51.044;13.788;2023-02-28T13:17:39;14.40;;;10.75;;
74245;SDS011;62601;51.044;13.788;2023-02-28T13:19:32;13.18;;;11.05;;
74245;SDS011;62601;51.044;13.788;2023-02-28T13:21:54;14.57;;;11.80;;
74245;SDS011;62601;51.044;13.788;2023-02-28T13:24:57;13.77;;;11.82;;
74245;SDS011;62601;51.044;13.788;2023-02-28T13:29:35;12.38;;;10.63;;
74245;SDS011;62601;51.044;13.788;2023-02-28T13:34:23;12.27;;;10.98;;
74245;SDS011;62601;51.044;13.788;2023-02-28T13:36:43;16.95;;;12.32;;
74245;SDS011;62601;51.044;13.788;2023-02-28T13:41:46;15.10;;;12.35;;
74245;SDS011;62601;51.044;13.788;2023-02-28T13:44:10;14.95;;;12.38;;
74245;SDS011;62601;51.044;13.788;2023-02-28T13:46:32;12.90;;;11.70;;
74245;SDS011;62601;51.044;13.788;2023-02-28T13:48:54;11.98;;;10.63;;
74245;SDS011;62601;51.044;13.788;2023-02-28T13:51:35;18.48;;;13.20;;
74245;SDS011;62601;51.044;13.788;2023-02-28T13:54:00;15.73;;;12.20;;
74245;SDS011;62601;51.044;13.788;2023-02-28T13:56:30;12.87;;;11.40;;
74245;SDS011;62601;51.044;13.788;2023-02-28T13:59:03;13.00;;;11.70;;
74245;SDS011;62601;51.044;13.788;2023-02-28T14:01:28;13.63;;;12.23;;
74245;SDS011;62601;51.044;13.788;2023-02-28T14:04:09;13.83;;;11.43;;
74245;SDS011;62601;51.044;13.788;2023-02-28T14:06:35;13.53;;;11.10;;
74245;SDS011;62601;51.044;13.788;2023-02-28T14:11:37;14.45;;;11.68;;
74245;SDS011;62601;51.044;13.788;2023-02-28T14:13:57;15.13;;;13.13;;
74245;SDS011;62601;51.044;13.788;2023-02-28T14:16:23;13.77;;;11.52;;
74245;SDS011;62601;51.044;13.788;2023-02-28T14:18:57;13.00;;;11.60;;
74245;SDS011;62601;51.044;13.788;2023-02-28T14:21:28;13.52;;;12.20;;
74245;SDS011;62601;51.044;13.788;2023-02-28T14:26:35;13.93;;;11.25;;
74245;SDS011;62601;51.044;13.788;2023-02-28T14:29:21;13.60;;;11.38;;
74245;SDS011;62601;51.044;13.788;2023-02-28T14:32:03;13.05;;;11.68;;
74245;SDS011;62601;51.044;13.788;2023-02-28T14:37:09;16.98;;;12.85;;
74245;SDS011;62601;51.044;13.788;2023-02-28T14:39:31;13.05;;;11.07;;
74245;SDS011;62601;51.044;13.788;2023-02-28T14:41:51;14.35;;;11.90;;
74245;SDS011;62601;51.044;13.788;2023-02-28T14:44:25;17.38;;;11.30;;
74245;SDS011;62601;51.044;13.788;2023-02-28T14:46:56;15.48;;;12.27;;
74245;SDS011;62601;51.044;13.788;2023-02-28T14:49:32;18.80;;;11.77;;
74245;SDS011;62601;51.044;13.788;2023-02-28T14:54:34;15.07;;;11.52;;
74245;SDS011;62601;51.044;13.788;2023-02-28T14:56:55;16.10;;;11.77;;
74245;SDS011;62601;51.044;13.788;2023-02-28T14:59:25;16.42;;;12.45;;
74245;SDS011;62601;51.044;13.788;2023-02-28T15:01:46;16.20;;;12.50;;
74245;SDS011;62601;51.044;13.788;2023-02-28T15:04:15;15.20;;;12.88;;
74245;SDS011;62601;51.044;13.788;2023-02-28T15:06:39;16.15;;;12.45;;
74245;SDS011;62601;51.044;13.788;2023-02-28T15:09:15;13.20;;;11.80;;
74245;SDS011;62601;51.044;13.788;2023-02-28T15:11:37;14.52;;;12.13;;
74245;SDS011;62601;51.044;13.788;2023-02-28T15:13:59;15.93;;;11.30;;
74245;SDS011;62601;51.044;13.788;2023-02-28T15:16:42;15.02;;;12.13;;
74245;SDS011;62601;51.044;13.788;2023-02-28T15:19:14;17.08;;;12.00;;
74245;SDS011;62601;51.044;13.788;2023-02-28T15:21:39;22.33;;;13.48;;
74245;SDS011;62601;51.044;13.788;2023-02-28T15:24:14;17.15;;;11.77;;
74245;SDS011;62601;51.044;13.788;2023-02-28T15:26:41;16.10;;;12.00;;
74245;SDS011;62601;51.044;13.788;2023-02-28T15:29:07;15.70;;;11.40;;
74245;SDS011;62601;51.044;13.788;2023-02-28T15:31:32;15.90;;;12.48;;
74245;SDS011;62601;51.044;13.788;2023-02-28T15:33:54;18.58;;;11.13;;
74245;SDS011;62601;51.044;13.788;2023-02-28T15:36:16;18.02;;;12.05;;
74245;SDS011;62601;51.044;13.788;2023-02-28T15:38:39;20.67;;;12.65;;
74245;SDS011;62601;51.044;13.788;2023-02-28T15:41:00;19.75;;;12.95;;
74245;SDS011;62601;51.044;13.788;2023-02-28T15:43:33;19.33;;;13.45;;